Time;durP1;ratioP1;P1;durP2;ratioP2;P2;SDS_P1;SDS_P2;PMS_P1;PMS_P2;Temp;Humidity;BMP_temperature;BMP_pressure;BME280_temperature;BME280_humidity;BME280_pressure;Samples;Min_cycle;Max_cycle;Signal;HPM_P1;HPM_P2
2022/03/24 00:01:21;;;;;;;40.75;35.28;;;;;;;3.75;100.00;102872.66;5206687;28;20029;-81
2022/03/24 00:03:51;;;;;;;41.92;37.72;;;;;;;3.36;100.00;102830.44;5205366;28;20034;-81
2022/03/24 00:06:22;;;;;;;37.25;33.75;;;;;;;3.52;100.00;102875.03;5188129;28;20045;-81
2022/03/24 00:08:52;;;;;;;39.13;35.28;;;;;;;3.72;100.00;102907.72;5205078;28;20017;-81
2022/03/24 00:11:22;;;;;;;38.13;34.47;;;;;;;3.93;100.00;102934.84;5205484;28;20052;-81
2022/03/24 00:13:53;;;;;;;40.15;32.45;;;;;;;3.80;100.00;102907.72;5205123;28;20032;-81
2022/03/24 00:16:24;;;;;;;38.08;32.80;;;;;;;3.61;100.00;102875.94;5189017;28;20022;-81
2022/03/24 00:18:54;;;;;;;36.53;32.55;;;;;;;3.59;100.00;102892.13;5205447;28;20056;-81
2022/03/24 00:21:25;;;;;;;49.88;43.08;;;;;;;3.88;100.00;102928.31;5199642;22;20488;-58
2022/03/24 00:23:57;;;;;;;54.20;43.50;;;;;;;3.56;100.00;102883.59;5154987;28;20497;-63
2022/03/24 00:26:28;;;;;;;43.42;39.03;;;;;;;3.79;100.00;102922.09;5145565;28;20066;-58
2022/03/24 00:28:58;;;;;;;47.08;41.97;;;;;;;3.76;100.00;102924.25;5145976;28;20050;-58
2022/03/24 00:31:29;;;;;;;48.80;40.65;;;;;;;3.65;100.00;102915.53;5145572;28;20026;-57
2022/03/24 00:34:00;;;;;;;42.40;37.85;;;;;;;3.62;100.00;102921.19;5146821;28;20029;-57
2022/03/24 00:36:31;;;;;;;47.08;39.28;;;;;;;3.56;100.00;102919.16;5144175;28;20400;-58
2022/03/24 00:39:01;;;;;;;47.22;41.92;;;;;;;3.53;100.00;102919.47;5144969;28;20121;-58
2022/03/24 00:41:35;;;;;;;41.88;37.85;;;;;;;3.50;100.00;102916.28;5144843;28;20114;-58
2022/03/24 00:44:07;;;;;;;42.65;38.92;;;;;;;3.49;100.00;102918.09;5144825;28;20031;-57
2022/03/24 00:46:37;;;;;;;43.38;38.92;;;;;;;3.46;100.00;102917.59;5145099;28;20027;-57
2022/03/24 00:49:08;;;;;;;42.00;37.45;;;;;;;3.45;100.00;102915.94;5145471;28;20385;-58
2022/03/24 00:51:38;;;;;;;42.80;38.70;;;;;;;3.41;100.00;102906.56;5145043;28;20027;-59
2022/03/24 00:54:09;;;;;;;42.33;37.75;;;;;;;3.37;100.00;102916.72;5144582;28;20030;-59
2022/03/24 00:56:40;;;;;;;42.45;38.45;;;;;;;3.33;100.00;102916.19;5144434;28;20094;-56
2022/03/24 00:59:10;;;;;;;42.00;37.47;;;;;;;3.34;100.00;102915.19;5144493;28;20125;-59
2022/03/24 01:01:41;;;;;;;40.28;34.90;;;;;;;3.37;100.00;102912.22;5145979;28;20026;-59
2022/03/24 01:04:12;;;;;;;41.40;37.05;;;;;;;3.35;100.00;102900.00;5144127;28;20489;-59
2022/03/24 01:06:43;;;;;;;42.85;38.15;;;;;;;3.38;100.00;102910.38;5144549;28;20500;-59
2022/03/24 01:09:13;;;;;;;43.00;38.17;;;;;;;3.32;100.00;102906.50;5144251;28;20114;-56
2022/03/24 01:11:44;;;;;;;45.75;38.50;;;;;;;3.29;100.00;102904.16;5144301;28;20054;-58
2022/03/24 01:14:16;;;;;;;42.75;38.20;;;;;;;3.27;100.00;102905.28;5143702;28;20061;-58
2022/03/24 01:16:47;;;;;;;43.47;37.83;;;;;;;3.21;100.00;102901.41;5143872;28;20022;-58
2022/03/24 01:19:17;;;;;;;42.58;38.15;;;;;;;3.17;100.00;102897.41;5143157;28;20023;-59
2022/03/24 01:21:48;;;;;;;44.55;36.60;;;;;;;3.12;100.00;102888.19;5143708;28;20034;-58
2022/03/24 01:24:18;;;;;;;41.88;37.70;;;;;;;3.19;100.00;102898.06;5143769;28;20551;-57
2022/03/24 01:26:49;;;;;;;42.45;38.33;;;;;;;3.13;100.00;102893.38;5143928;28;20477;-59
2022/03/24 01:29:21;;;;;;;44.17;39.30;;;;;;;3.05;100.00;102890.66;5143479;28;20033;-58
2022/03/24 01:31:52;;;;;;;39.03;35.15;;;;;;;3.00;100.00;102893.78;5143418;28;20086;-57
2022/03/24 01:34:22;;;;;;;41.38;36.25;;;;;;;2.95;100.00;102890.75;5143807;28;20031;-57
2022/03/24 01:36:53;;;;;;;41.10;36.47;;;;;;;2.88;100.00;102884.38;5145099;28;20027;-58
2022/03/24 01:39:23;;;;;;;39.67;35.65;;;;;;;2.93;100.00;102887.38;5145575;28;20057;-58
2022/03/24 01:41:54;;;;;;;40.13;36.50;;;;;;;2.81;100.00;102869.13;5143178;28;20035;-59
2022/03/24 01:44:26;;;;;;;39.88;36.20;;;;;;;2.91;100.00;102886.69;5143539;28;20027;-56
2022/03/24 01:46:59;;;;;;;49.78;38.38;;;;;;;2.89;100.00;102886.03;5143983;28;20026;-59
2022/03/24 01:49:35;;;;;;;42.10;38.22;;;;;;;2.86;100.00;102880.19;5143808;28;20400;-59
2022/03/24 01:52:11;;;;;;;41.35;37.10;;;;;;;2.87;100.00;102884.53;5143957;28;20027;-59
2022/03/24 01:54:54;;;;;;;40.55;36.28;;;;;;;2.81;100.00;102882.47;5143661;28;20049;-58
2022/03/24 01:57:27;;;;;;;41.63;37.45;;;;;;;2.69;100.00;102877.38;5143839;28;20027;-59
2022/03/24 01:59:59;;;;;;;44.20;39.85;;;;;;;2.66;100.00;102875.00;5143500;28;20045;-59
2022/03/24 02:02:29;;;;;;;43.72;39.33;;;;;;;2.64;100.00;102877.00;5143522;28;20042;-58
2022/03/24 02:05:00;;;;;;;50.70;37.70;;;;;;;2.58;100.00;102882.13;5142879;28;20035;-60
2022/03/24 02:07:32;;;;;;;44.90;40.20;;;;;;;2.56;100.00;102878.78;5143792;28;20117;-59
2022/03/24 02:10:08;;;;;;;46.20;37.10;;;;;;;2.56;100.00;102882.28;5143859;28;20381;-60
2022/03/24 02:12:38;;;;;;;46.30;40.25;;;;;;;2.35;100.00;102863.06;5143601;28;20134;-59
2022/03/24 02:15:09;;;;;;;46.75;41.92;;;;;;;2.42;100.00;102882.81;5143321;28;20027;-56
2022/03/24 02:17:41;;;;;;;41.78;37.85;;;;;;;2.41;100.00;102881.13;5143336;28;20066;-58
2022/03/24 02:20:12;;;;;;;43.88;39.88;;;;;;;2.46;100.00;102876.19;5143458;28;20500;-57
2022/03/24 02:22:44;;;;;;;43.05;35.60;;;;;;;2.49;100.00;102878.56;5143245;28;20070;-58
2022/03/24 02:25:14;;;;;;;43.92;39.67;;;;;;;2.49;100.00;102888.38;5143031;28;20030;-57
2022/03/24 02:27:47;;;;;;;41.38;37.45;;;;;;;2.26;100.00;102859.53;5143134;28;20401;-60
2022/03/24 02:30:18;;;;;;;38.70;35.08;;;;;;;2.37;100.00;102890.44;5145272;28;20026;-58
2022/03/24 02:32:48;;;;;;;42.47;38.05;;;;;;;2.28;100.00;102886.03;5147230;28;20038;-58
2022/03/24 02:35:19;;;;;;;49.35;40.17;;;;;;;2.23;100.00;102882.97;5147173;28;20031;-59
2022/03/24 02:37:49;;;;;;;39.72;36.05;;;;;;;2.24;100.00;102887.31;5147594;28;20097;-58
2022/03/24 02:40:20;;;;;;;41.30;37.20;;;;;;;2.24;100.00;102889.97;5146960;28;20019;-59
2022/03/24 02:42:51;;;;;;;41.58;37.03;;;;;;;2.22;100.00;102886.63;5147293;28;20034;-59
2022/03/24 02:45:21;;;;;;;39.33;35.30;;;;;;;2.10;100.00;102866.50;5147006;28;20023;-58
2022/03/24 02:47:52;;;;;;;45.42;35.42;;;;;;;2.20;100.00;102884.13;5146873;28;20034;-57
2022/03/24 02:50:22;;;;;;;43.75;39.15;;;;;;;2.20;100.00;102885.94;5147075;28;20023;-57
2022/03/24 02:52:53;;;;;;;42.42;38.08;;;;;;;1.89;100.00;102843.66;5146835;28;20373;-57
2022/03/24 02:55:24;;;;;;;47.80;42.90;;;;;;;2.19;100.00;102884.25;5146842;28;20040;-58
2022/03/24 02:57:55;;;;;;;41.60;37.83;;;;;;;2.17;100.00;102894.22;5146936;28;20042;-58
2022/03/24 03:00:27;;;;;;;45.75;40.30;;;;;;;2.12;100.00;102891.19;5147920;28;20026;-56
2022/03/24 03:02:58;;;;;;;41.88;37.58;;;;;;;2.12;100.00;102893.84;5162985;28;20038;-57
2022/03/24 03:05:28;;;;;;;42.85;38.75;;;;;;;2.01;100.00;102887.75;5146338;28;20026;-59
2022/03/24 03:07:59;;;;;;;49.17;41.03;;;;;;;1.88;100.00;102884.59;5146766;28;20042;-59
2022/03/24 03:10:29;;;;;;;41.55;37.75;;;;;;;1.81;100.00;102872.84;5146714;28;20022;-58
2022/03/24 03:12:59;;;;;;;45.20;36.85;;;;;;;1.88;100.00;102889.94;5146271;28;20037;-58
2022/03/24 03:15:30;;;;;;;45.80;40.53;;;;;;;1.90;100.00;102885.28;5145891;28;20027;-57
2022/03/24 03:18:02;;;;;;;46.70;42.20;;;;;;;1.90;100.00;102879.13;5146164;28;20037;-57
2022/03/24 03:20:32;;;;;;;48.03;42.95;;;;;;;1.89;100.00;102888.09;5147355;28;20118;-58
2022/03/24 03:23:03;;;;;;;48.22;37.92;;;;;;;1.81;100.00;102885.34;5146753;28;20488;-58
2022/03/24 03:25:34;;;;;;;45.88;41.42;;;;;;;1.73;100.00;102880.78;5146436;28;20452;-58
2022/03/24 03:28:07;;;;;;;40.13;36.15;;;;;;;1.67;100.00;102876.88;5146131;28;20034;-57
2022/03/24 03:30:37;;;;;;;43.40;39.25;;;;;;;1.76;100.00;102896.44;5145984;28;20027;-57
2022/03/24 03:33:08;;;;;;;40.50;36.92;;;;;;;1.71;100.00;102885.41;5145671;28;20035;-59
2022/03/24 03:35:38;;;;;;;44.97;40.15;;;;;;;1.67;100.00;102876.03;5145731;28;20400;-57
2022/03/24 03:38:10;;;;;;;48.72;40.63;;;;;;;1.69;100.00;102880.22;5146079;28;20031;-58
2022/03/24 03:40:41;;;;;;;44.05;39.92;;;;;;;1.72;100.00;102880.91;5145757;28;20023;-58
2022/03/24 03:43:12;;;;;;;51.30;39.67;;;;;;;1.64;100.00;102890.47;5145356;28;20085;-58
2022/03/24 03:45:42;;;;;;;40.97;36.88;;;;;;;1.58;100.00;102880.41;5145530;28;20122;-59
2022/03/24 03:48:13;;;;;;;45.80;37.97;;;;;;;1.64;100.00;102887.81;5145579;28;20464;-57
2022/03/24 03:50:44;;;;;;;50.60;45.38;;;;;;;1.48;100.00;102852.97;5145896;28;20030;-56
2022/03/24 03:53:14;;;;;;;45.33;37.50;;;;;;;1.69;100.00;102898.88;5147570;28;20030;-56
2022/03/24 03:55:45;;;;;;;44.63;40.13;;;;;;;1.62;100.00;102880.97;5145038;28;20034;-57
2022/03/24 03:58:15;;;;;;;45.30;40.70;;;;;;;1.71;100.00;102876.56;5145569;28;20030;-57
2022/03/24 04:00:52;;;;;;;44.33;39.72;;;;;;;1.82;100.00;102890.50;5146569;28;20065;-58
2022/03/24 04:03:27;;;;;;;45.65;40.85;;;;;;;1.86;100.00;102896.38;5145190;28;20031;-59
2022/03/24 04:06:04;;;;;;;47.25;42.28;;;;;;;1.82;100.00;102901.16;5145556;28;20031;-57
2022/03/24 04:08:36;;;;;;;44.28;40.13;;;;;;;1.73;100.00;102885.25;5145751;28;20031;-59
2022/03/24 04:11:09;;;;;;;41.70;37.58;;;;;;;1.79;100.00;102889.97;5145309;28;20038;-55
2022/03/24 04:13:42;;;;;;;45.42;40.80;;;;;;;1.78;100.00;102898.94;5145088;28;20507;-58
2022/03/24 04:16:12;;;;;;;47.50;42.22;;;;;;;1.61;100.00;102885.44;5145201;28;20085;-58
2022/03/24 04:18:48;;;;;;;45.60;41.20;;;;;;;1.53;100.00;102895.97;5145385;28;20396;-58
2022/03/24 04:21:20;;;;;;;43.60;38.63;;;;;;;1.46;100.00;102905.53;5145434;28;20034;-59
2022/03/24 04:23:51;;;;;;;47.88;43.15;;;;;;;1.36;100.00;102896.75;5144679;28;20456;-58
2022/03/24 04:26:22;;;;;;;41.90;37.60;;;;;;;1.29;100.00;102896.50;5145069;28;20023;-60
2022/03/24 04:28:52;;;;;;;48.30;43.63;;;;;;;1.04;100.00;102861.72;5145142;28;20027;-56
2022/03/24 04:31:23;;;;;;;45.38;40.55;;;;;;;1.24;100.00;102890.75;5145051;28;20058;-58
2022/03/24 04:33:53;;;;;;;51.47;46.70;;;;;;;1.15;100.00;102883.66;5146212;28;20027;-58
2022/03/24 04:36:24;;;;;;;50.20;45.10;;;;;;;1.15;100.00;102880.16;5145103;28;20054;-59
2022/03/24 04:38:54;;;;;;;52.75;47.70;;;;;;;1.17;100.00;102896.81;5144817;28;20026;-55
2022/03/24 04:41:25;;;;;;;48.35;43.47;;;;;;;1.10;100.00;102880.59;5144921;28;20088;-58
2022/03/24 04:43:55;;;;;;;50.97;45.60;;;;;;;1.12;100.00;102897.25;5144670;28;20105;-57
2022/03/24 04:46:25;;;;;;;43.10;38.92;;;;;;;1.04;100.00;102891.81;5144791;28;20026;-58
2022/03/24 04:48:56;;;;;;;50.22;44.97;;;;;;;0.96;100.00;102895.19;5146054;28;20069;-58
2022/03/24 04:51:26;;;;;;;58.40;43.58;;;;;;;0.94;100.00;102897.13;5144508;28;20480;-58
2022/03/24 04:53:57;;;;;;;48.30;43.42;;;;;;;0.95;100.00;102895.31;5143292;28;20089;-56
2022/03/24 04:56:27;;;;;;;48.85;44.08;;;;;;;0.95;100.00;102901.47;5144352;28;20022;-58
2022/03/24 04:58:58;;;;;;;48.03;43.25;;;;;;;0.91;100.00;102883.28;5144346;28;20137;-58
2022/03/24 05:01:29;;;;;;;49.05;43.70;;;;;;;0.97;100.00;102898.69;5144582;28;20531;-58
2022/03/24 05:04:00;;;;;;;44.90;40.28;;;;;;;0.96;100.00;102883.69;5144145;28;20026;-55
2022/03/24 05:06:31;;;;;;;46.92;42.08;;;;;;;0.93;100.00;102899.94;5144398;28;20401;-56
2022/03/24 05:09:02;;;;;;;48.83;43.38;;;;;;;0.79;100.00;102879.13;5144289;28;20030;-59
2022/03/24 05:11:32;;;;;;;53.13;45.63;;;;;;;0.84;100.00;102890.19;5144503;28;20029;-59
2022/03/24 05:14:03;;;;;;;54.70;44.65;;;;;;;0.83;100.00;102891.16;5160476;28;20058;-58
2022/03/24 05:16:34;;;;;;;53.88;46.25;;;;;;;0.78;100.00;102893.41;5160525;28;20085;-60
2022/03/24 05:19:04;;;;;;;57.65;47.08;;;;;;;0.76;100.00;102895.38;5144282;28;20039;-57
2022/03/24 05:21:35;;;;;;;59.53;47.92;;;;;;;0.70;100.00;102901.25;5143852;28;20140;-61
2022/03/24 05:24:06;;;;;;;68.95;47.88;;;;;;;0.64;100.00;102900.81;5143929;28;20038;-56
2022/03/24 05:26:37;;;;;;;52.03;46.85;;;;;;;0.66;100.00;102898.03;5144033;28;20037;-59
2022/03/24 05:29:07;;;;;;;64.32;53.20;;;;;;;0.65;100.00;102897.19;5144006;28;20117;-58
2022/03/24 05:31:38;;;;;;;54.22;48.47;;;;;;;0.59;100.00;102895.06;5141637;28;20030;-59
2022/03/24 05:34:08;;;;;;;60.97;53.08;;;;;;;0.65;100.00;102906.97;5159739;28;20117;-57
2022/03/24 05:36:39;;;;;;;70.20;47.08;;;;;;;0.68;100.00;102910.19;5165046;28;20396;-59
2022/03/24 05:39:09;;;;;;;62.22;50.50;;;;;;;0.56;100.00;102897.22;5165403;28;20030;-59
2022/03/24 05:41:41;;;;;;;61.75;55.53;;;;;;;0.58;100.00;102897.88;5163950;28;20026;-59
2022/03/24 05:44:11;;;;;;;64.88;51.70;;;;;;;0.61;100.00;102917.03;5163616;28;20054;-58
2022/03/24 05:46:44;;;;;;;59.03;52.42;;;;;;;0.59;100.00;102912.84;5163292;28;20401;-59
2022/03/24 05:49:17;;;;;;;55.70;47.65;;;;;;;0.47;100.00;102880.28;5163809;28;20544;-59
2022/03/24 05:51:49;;;;;;;65.38;52.42;;;;;;;0.66;100.00;102908.66;5179964;28;20018;-59
2022/03/24 05:54:21;;;;;;;60.72;45.92;;;;;;;0.73;100.00;102908.94;5163493;28;20050;-59
2022/03/24 05:56:52;;;;;;;55.50;48.30;;;;;;;0.64;100.00;102882.19;5163460;28;20513;-61
2022/03/24 05:59:22;;;;;;;55.13;49.47;;;;;;;0.81;100.00;102919.72;5163599;28;20041;-61
2022/03/24 06:01:53;;;;;;;56.10;48.72;;;;;;;0.85;100.00;102921.13;5179674;28;20030;-59
2022/03/24 06:04:24;;;;;;;59.10;53.15;;;;;;;0.90;100.00;102908.19;5163152;28;20101;-59
2022/03/24 06:06:57;;;;;;;60.30;51.50;;;;;;;0.93;100.00;102908.75;5179616;28;20432;-59
2022/03/24 06:09:28;;;;;;;78.95;53.28;;;;;;;0.93;100.00;102913.25;5163221;28;20056;-59
2022/03/24 06:11:58;;;;;;;57.88;51.70;;;;;;;1.00;100.00;102909.03;5145718;28;20022;-58
2022/03/24 06:14:30;;;;;;;65.78;54.60;;;;;;;0.91;100.00;102889.44;5159046;28;20027;-58
2022/03/24 06:17:00;;;;;;;61.75;55.20;;;;;;;1.12;100.00;102917.72;5143433;28;20389;-55
2022/03/24 06:19:31;;;;;;;65.47;51.80;;;;;;;1.12;100.00;102912.38;5143114;28;20081;-58
2022/03/24 06:22:03;;;;;;;60.30;51.85;;;;;;;1.24;100.00;102919.19;5206819;22;20140;-54
2022/03/24 06:24:34;;;;;;;59.78;53.58;;;;;;;1.24;100.00;102911.22;5183295;28;20034;-53
2022/03/24 06:27:17;;;;;;;62.03;55.45;;;;;;;1.33;100.00;102916.53;5166336;28;20054;-54
2022/03/24 06:29:47;;;;;;;60.60;52.90;;;;;;;1.43;100.00;102921.00;5181747;28;20029;-56
2022/03/24 06:32:18;;;;;;;71.88;57.75;;;;;;;1.50;100.00;102917.56;5179844;28;20344;-55
2022/03/24 06:34:50;;;;;;;71.35;55.70;;;;;;;1.58;100.00;102915.03;5180568;28;20407;-55
2022/03/24 06:37:21;;;;;;;63.13;53.63;;;;;;;1.64;100.00;102919.78;5180544;28;20164;-55
2022/03/24 06:39:51;;;;;;;83.35;59.00;;;;;;;1.79;100.00;102919.28;5182171;28;20140;-56
2022/03/24 06:42:23;;;;;;;58.40;52.17;;;;;;;1.89;100.00;102918.25;5182393;28;20039;-55
2022/03/24 06:44:53;;;;;;;58.15;51.75;;;;;;;2.02;100.00;102925.91;5182547;28;20022;-52
2022/03/24 06:47:24;;;;;;;64.05;53.30;;;;;;;2.11;100.00;102917.00;5182668;28;20038;-55
2022/03/24 06:49:54;;;;;;;65.07;56.55;;;;;;;2.23;100.00;102920.28;5182868;28;20026;-54
2022/03/24 06:52:25;;;;;;;57.08;50.92;;;;;;;2.29;100.00;102906.38;5181496;28;20364;-56
2022/03/24 06:54:55;;;;;;;62.83;56.35;;;;;;;2.43;100.00;102915.66;5182478;28;20379;-55
2022/03/24 06:57:26;;;;;;;71.95;53.65;;;;;;;2.55;100.00;102925.94;5182436;28;20484;-54
2022/03/24 06:59:56;;;;;;;62.47;56.00;;;;;;;2.68;100.00;102926.38;5182404;28;20562;-55
2022/03/24 07:02:27;;;;;;;66.35;56.65;;;;;;;2.80;100.00;102912.81;5182729;28;20060;-55
2022/03/24 07:04:57;;;;;;;65.28;54.22;;;;;;;2.95;100.00;102916.59;5183449;28;20026;-55
2022/03/24 07:07:28;;;;;;;65.18;55.78;;;;;;;3.06;100.00;102913.69;5182318;28;20036;-54
2022/03/24 07:09:58;;;;;;;67.00;59.80;;;;;;;3.18;100.00;102920.41;5182512;28;20026;-55
2022/03/24 07:12:28;;;;;;;60.72;54.58;;;;;;;3.28;100.00;102915.81;5182381;28;20036;-56
2022/03/24 07:14:59;;;;;;;64.10;55.47;;;;;;;3.45;100.00;102921.28;5182539;28;20022;-54
2022/03/24 07:17:29;;;;;;;66.20;57.65;;;;;;;3.62;100.00;102917.69;5184875;28;20488;-57
2022/03/24 07:20:00;;;;;;;63.83;54.72;;;;;;;3.71;100.00;102922.91;5186136;28;20021;-56
2022/03/24 07:22:32;;;;;;;73.70;63.85;;;;;;;3.96;100.00;102936.38;5186234;28;20026;-55
2022/03/24 07:25:05;;;;;;;67.45;56.50;;;;;;;4.14;100.00;102933.56;5185865;28;20110;-54
2022/03/24 07:27:37;;;;;;;67.70;56.22;;;;;;;4.35;100.00;102939.31;5185985;28;20036;-57
2022/03/24 07:30:09;;;;;;;64.60;56.35;;;;;;;4.57;100.00;102938.69;5185473;28;20033;-55
2022/03/24 07:32:42;;;;;;;68.00;57.40;;;;;;;4.73;100.00;102941.38;5185107;28;20061;-55
2022/03/24 07:35:14;;;;;;;65.47;53.28;;;;;;;4.85;100.00;102941.88;5184923;28;20033;-57
2022/03/24 07:37:45;;;;;;;59.15;52.90;;;;;;;4.48;100.00;102871.97;5201422;28;20030;-55
2022/03/24 07:40:18;;;;;;;60.47;53.15;;;;;;;5.14;100.00;102936.00;5184893;28;20084;-55
2022/03/24 07:42:52;;;;;;;61.83;52.30;;;;;;;5.33;100.00;102940.16;5184919;28;20098;-55
2022/03/24 07:45:25;;;;;;;59.42;53.65;;;;;;;5.46;100.00;102947.69;5184521;28;20117;-57
2022/03/24 07:48:18;;;;;;;56.28;50.85;;;;;;;5.58;100.00;102939.09;5185300;28;20030;-59
2022/03/24 07:50:49;;;;;;;57.55;48.10;;;;;;;5.75;100.00;102937.22;5185412;28;20034;-57
2022/03/24 07:53:36;;;;;;;54.05;47.92;;;;;;;5.96;100.00;102947.38;5184046;28;20455;-58
2022/03/24 07:56:08;;;;;;;59.20;52.45;;;;;;;6.14;100.00;102947.09;5185480;28;20040;-56
2022/03/24 07:58:39;;;;;;;66.97;49.00;;;;;;;6.37;100.00;102942.59;5185529;28;20484;-56
2022/03/24 08:01:11;;;;;;;57.95;50.53;;;;;;;6.60;100.00;102946.16;5185186;28;20033;-55
2022/03/24 08:03:43;;;;;;;54.25;48.22;;;;;;;6.82;100.00;102949.84;5185017;28;20082;-57
2022/03/24 08:06:15;;;;;;;55.30;45.95;;;;;;;6.97;100.00;102949.88;5185235;28;20026;-55
2022/03/24 08:08:46;;;;;;;57.13;49.65;;;;;;;7.01;100.00;102945.81;5185073;28;20569;-56
2022/03/24 08:11:16;;;;;;;56.55;50.78;;;;;;;7.07;100.00;102939.72;5185154;28;20025;-55
2022/03/24 08:13:47;;;;;;;53.83;48.45;;;;;;;7.12;100.00;102937.34;5200957;28;20032;-57
2022/03/24 08:16:27;;;;;;;58.17;49.47;;;;;;;7.26;100.00;102947.25;5184650;28;20021;-55
2022/03/24 08:18:58;;;;;;;56.67;50.70;;;;;;;7.37;100.00;102948.69;5184548;28;20034;-56
2022/03/24 08:21:28;;;;;;;55.88;47.10;;;;;;;7.52;100.00;102952.19;5184307;28;20038;-56
2022/03/24 08:23:59;;;;;;;57.50;50.83;;;;;;;7.71;100.00;102956.22;5184117;28;20072;-56
2022/03/24 08:26:29;;;;;;;58.30;52.53;;;;;;;7.98;100.00;102952.00;5184246;28;20080;-58
2022/03/24 08:29:00;;;;;;;60.45;49.42;;;;;;;8.11;100.00;102947.63;5184061;28;20030;-58
2022/03/24 08:31:30;;;;;;;53.92;47.40;;;;;;;8.36;100.00;102952.72;5184038;28;20018;-56
2022/03/24 08:34:01;;;;;;;52.53;46.55;;;;;;;8.54;100.00;102941.50;5183861;28;20057;-54
2022/03/24 08:36:31;;;;;;;51.25;46.22;;;;;;;8.79;100.00;102949.00;5184437;28;20030;-55
2022/03/24 08:39:02;;;;;;;57.78;51.90;;;;;;;8.99;100.00;102946.47;5184072;28;20033;-58
2022/03/24 08:41:32;;;;;;;53.13;47.30;;;;;;;9.16;100.00;102938.13;5184239;28;20025;-56
2022/03/24 08:44:03;;;;;;;49.03;43.65;;;;;;;9.37;100.00;102941.59;5185134;28;20037;-54
2022/03/24 08:46:34;;;;;;;53.95;48.08;;;;;;;9.62;100.00;102941.97;5184159;28;20105;-54
2022/03/24 08:49:04;;;;;;;50.05;44.88;;;;;;;9.77;100.00;102945.38;5183908;28;20025;-58
2022/03/24 08:51:35;;;;;;;51.80;43.47;;;;;;;10.03;100.00;102950.06;5184039;28;20115;-55
2022/03/24 08:54:06;;;;;;;55.65;43.63;;;;;;;10.20;100.00;102938.94;5183755;28;20037;-55
2022/03/24 08:56:37;;;;;;;50.70;44.30;;;;;;;10.56;100.00;102944.84;5183913;28;20021;-54
2022/03/24 08:59:07;;;;;;;53.70;46.53;;;;;;;10.82;100.00;102944.88;5183713;28;20462;-56
2022/03/24 09:01:41;;;;;;;53.15;46.50;;;;;;;11.05;100.00;102949.03;5183622;28;20080;-56
2022/03/24 09:04:11;;;;;;;47.83;41.47;;;;;;;11.21;100.00;102948.66;5183134;28;20041;-55
2022/03/24 09:06:42;;;;;;;49.42;41.47;;;;;;;11.31;100.00;102948.19;5167225;28;20373;-58
2022/03/24 09:09:12;;;;;;;50.78;43.90;;;;;;;11.57;100.00;102947.31;5183345;28;20037;-56
2022/03/24 09:11:43;;;;;;;53.42;44.28;;;;;;;11.71;100.00;102948.97;5183427;28;20033;-55
2022/03/24 09:14:13;;;;;;;48.83;43.75;;;;;;;11.89;100.00;102946.44;5183159;28;20028;-56
2022/03/24 09:16:45;;;;;;;53.88;48.17;;;;;;;12.17;100.00;102949.63;5183328;28;20026;-55
2022/03/24 09:19:15;;;;;;;42.20;37.60;;;;;;;12.43;100.00;102954.09;5183380;28;20103;-57
2022/03/24 09:21:46;;;;;;;43.58;38.90;;;;;;;12.58;90.07;102951.09;5183365;28;20172;-56
2022/03/24 09:24:16;;;;;;;44.00;38.45;;;;;;;12.68;88.28;102954.16;5182884;28;20038;-56
2022/03/24 09:26:47;;;;;;;48.10;40.92;;;;;;;12.96;87.25;102953.75;5183266;28;20030;-57
2022/03/24 09:29:17;;;;;;;44.05;39.42;;;;;;;13.08;83.37;102949.25;5183212;28;20455;-57
2022/03/24 09:31:49;;;;;;;52.80;39.13;;;;;;;13.31;82.74;102955.97;5183194;28;20025;-57
2022/03/24 09:34:20;;;;;;;56.35;37.67;;;;;;;13.52;83.63;102950.13;5182868;28;20495;-57
2022/03/24 09:36:50;;;;;;;46.13;41.35;;;;;;;13.75;82.45;102953.00;5183146;28;20034;-54
2022/03/24 09:39:21;;;;;;;42.25;37.58;;;;;;;13.95;80.73;102949.22;5182317;28;20543;-55
2022/03/24 09:41:53;;;;;;;40.85;36.55;;;;;;;13.90;75.09;102921.91;5183413;28;20117;-54
2022/03/24 09:44:24;;;;;;;38.75;32.17;;;;;;;14.02;70.73;102915.50;5182522;28;20025;-57
2022/03/24 09:46:55;;;;;;;44.80;36.78;;;;;;;14.39;70.60;102945.31;5199361;28;20460;-54
2022/03/24 09:49:25;;;;;;;36.50;32.80;;;;;;;14.61;73.15;102943.75;5199381;28;20065;-54
2022/03/24 09:51:56;;;;;;;44.35;36.22;;;;;;;14.76;71.46;102944.13;5199347;28;20052;-58
2022/03/24 09:54:26;;;;;;;46.80;33.25;;;;;;;14.85;69.37;102941.91;5182517;28;20030;-55
2022/03/24 09:57:03;;;;;;;45.55;36.30;;;;;;;14.79;68.25;102927.34;5182732;28;20025;-55
2022/03/24 09:59:34;;;;;;;41.58;37.28;;;;;;;14.78;66.32;102947.44;5182750;28;20113;-53
2022/03/24 10:02:05;;;;;;;42.05;37.70;;;;;;;14.68;66.04;102936.34;5182903;28;20120;-53
2022/03/24 10:04:50;;;;;;;43.42;37.88;;;;;;;14.90;67.78;102944.78;5182190;28;20040;-55
2022/03/24 10:07:23;;;;;;;42.58;36.58;;;;;;;15.12;67.66;102942.31;5182763;28;20033;-53
2022/03/24 10:09:56;;;;;;;38.70;34.70;;;;;;;15.01;67.03;102891.44;5182619;28;20398;-53
2022/03/24 10:12:33;;;;;;;44.17;33.90;;;;;;;15.65;66.26;102935.91;5182633;28;20030;-53
2022/03/24 10:15:05;;;;;;;35.08;31.23;;;;;;;15.81;63.27;102935.19;5182270;28;20030;-54
2022/03/24 10:17:37;;;;;;;39.42;30.67;;;;;;;15.73;62.52;102944.56;5182586;28;20032;-54
2022/03/24 10:20:15;;;;;;;34.35;30.17;;;;;;;15.90;62.03;102933.72;5182322;28;20022;-56
2022/03/24 10:22:57;;;;;;;35.25;31.25;;;;;;;16.09;58.82;102926.22;5182378;28;20117;-54
2022/03/24 10:25:31;;;;;;;33.33;29.85;;;;;;;16.18;57.07;102931.00;5181997;28;20132;-53
2022/03/24 10:28:04;;;;;;;31.15;27.85;;;;;;;16.38;59.42;102930.59;5182389;28;20026;-53
2022/03/24 10:30:54;;;;;;;39.13;34.90;;;;;;;16.55;58.83;102931.44;5182378;28;20104;-57
2022/03/24 10:33:27;;;;;;;29.85;26.67;;;;;;;16.69;56.91;102931.19;5182003;28;20022;-54
2022/03/24 10:36:23;;;;;;;34.28;27.85;;;;;;;16.72;53.12;102930.69;5182389;28;20134;-53
2022/03/24 10:39:01;;;;;;;26.80;24.27;;;;;;;16.73;51.99;102924.97;5182378;28;20022;-55
2022/03/24 10:41:34;;;;;;;31.35;23.45;;;;;;;16.80;50.88;102922.06;5182419;28;20036;-53
2022/03/24 10:44:12;;;;;;;37.85;24.90;;;;;;;16.87;51.45;102923.56;5181904;28;20629;-53
2022/03/24 10:46:43;;;;;;;24.00;21.52;;;;;;;16.93;50.07;102920.94;5182607;28;20550;-53
2022/03/24 10:49:25;;;;;;;30.75;23.52;;;;;;;16.86;49.18;102907.44;5182285;28;20161;-53
2022/03/24 10:51:56;;;;;;;31.77;23.90;;;;;;;16.99;51.65;102898.09;5185471;28;20118;-54
2022/03/24 10:54:41;;;;;;;30.85;23.20;;;;;;;17.21;47.72;102918.09;5185912;28;20175;-53
2022/03/24 10:57:18;;;;;;;31.70;23.23;;;;;;;17.28;46.72;102913.28;5186313;28;20042;-56
2022/03/24 10:59:58;;;;;;;32.70;26.50;;;;;;;17.45;50.02;102910.50;5187531;28;20025;-53
2022/03/24 11:02:29;;;;;;;24.63;22.17;;;;;;;17.36;46.45;102910.09;5186169;28;20038;-56
2022/03/24 11:05:02;;;;;;;26.10;22.55;;;;;;;17.25;46.04;102911.06;5185848;28;20183;-56
2022/03/24 11:07:32;;;;;;;21.70;19.15;;;;;;;17.28;46.71;102912.47;5186152;28;20569;-58
2022/03/24 11:10:13;;;;;;;29.00;22.40;;;;;;;17.42;46.80;102911.00;5202284;28;20113;-57
2022/03/24 11:12:44;;;;;;;27.35;23.83;;;;;;;17.40;46.72;102911.25;5185767;28;20037;-58
2022/03/24 11:15:16;;;;;;;27.35;24.08;;;;;;;17.29;47.11;102909.47;5185450;28;20022;-58
2022/03/24 11:17:47;;;;;;;24.10;19.15;;;;;;;17.34;46.79;102898.59;5185793;28;20252;-58
2022/03/24 11:20:18;;;;;;;20.50;18.35;;;;;;;17.48;46.79;102901.81;5202307;28;20034;-56
2022/03/24 11:22:56;;;;;;;21.17;17.17;;;;;;;17.44;46.18;102901.50;5186086;28;20446;-57
2022/03/24 11:25:29;;;;;;;20.92;15.95;;;;;;;17.32;46.11;102886.31;5183446;28;20488;-57
2022/03/24 11:28:02;;;;;;;17.27;15.43;;;;;;;17.44;46.58;102890.56;5199039;28;20033;-58
2022/03/24 11:30:34;;;;;;;17.70;15.45;;;;;;;17.60;47.17;102896.25;5201745;28;20416;-57